Time;durP1;ratioP1;P1;durP2;ratioP2;P2;SDS_P1;SDS_P2;PMS_P1;PMS_P2;Temp;Humidity;BMP_temperature;BMP_pressure;BME280_temperature;BME280_humidity;BME280_pressure;Samples;Min_cycle;Max_cycle;Signal;HPM_P1;HPM_P2
2023/07/15 00:01:28;;;;;;;5.20;3.70;;;;;;;20.17;64.90;100391.25;6189901;23;20061;-76
2023/07/15 00:03:56;;;;;;;5.25;3.70;;;;;;;20.17;64.45;100396.66;6163280;23;20081;-76
2023/07/15 00:06:24;;;;;;;5.65;3.33;;;;;;;20.19;64.25;100391.47;6189643;23;20073;-77
2023/07/15 00:08:51;;;;;;;5.07;3.58;;;;;;;20.20;63.80;100389.50;6162820;23;20049;-77
2023/07/15 00:11:24;;;;;;;3.50;3.28;;;;;;;20.21;63.36;100394.38;6189798;23;20013;-76
2023/07/15 00:13:50;;;;;;;5.10;3.30;;;;;;;20.23;62.42;100394.59;6188838;23;20022;-77
2023/07/15 00:16:17;;;;;;;3.83;3.47;;;;;;;20.26;61.85;100384.75;6190037;23;20025;-77
2023/07/15 00:18:45;;;;;;;4.82;3.10;;;;;;;20.28;61.64;100384.97;6189744;23;20733;-77
2023/07/15 00:21:20;;;;;;;6.53;3.50;;;;;;;20.27;61.20;100380.78;6163767;23;20021;-77
2023/07/15 00:23:49;;;;;;;9.95;3.30;;;;;;;20.29;60.35;100381.75;6189605;23;20073;-77
2023/07/15 00:26:16;;;;;;;8.05;2.90;;;;;;;20.33;59.99;100373.34;6190015;23;20478;-76
2023/07/15 00:28:43;;;;;;;4.88;2.95;;;;;;;20.32;59.05;100377.28;6132870;23;20449;-76
2023/07/15 00:31:14;;;;;;;4.55;2.72;;;;;;;20.33;59.48;100373.34;6160162;23;20417;-76
2023/07/15 00:33:41;;;;;;;6.65;3.20;;;;;;;20.30;59.49;100377.78;6159741;23;20056;-77
2023/07/15 00:36:10;;;;;;;3.03;2.83;;;;;;;20.29;59.13;100379.03;6160004;23;20018;-76
2023/07/15 00:38:37;;;;;;;3.22;3.03;;;;;;;20.29;58.95;100376.34;6159884;23;20018;-76
2023/07/15 00:41:12;;;;;;;4.40;3.20;;;;;;;20.30;59.28;100383.19;6159664;23;20021;-76
2023/07/15 00:43:58;;;;;;;6.18;3.03;;;;;;;20.26;59.45;100390.16;6159341;23;20028;-75
2023/07/15 00:46:49;;;;;;;4.00;2.97;;;;;;;20.31;59.05;100387.38;6158146;23;20360;-76
2023/07/15 00:49:22;;;;;;;9.43;2.90;;;;;;;20.34;58.86;100395.69;6158619;23;20054;-76
2023/07/15 00:52:01;;;;;;;6.25;2.83;;;;;;;20.26;59.38;100398.97;6159956;23;20018;-75
2023/07/15 00:54:32;;;;;;;5.85;2.83;;;;;;;20.28;58.85;100384.97;6159729;23;20435;-76
2023/07/15 00:57:00;;;;;;;2.95;2.75;;;;;;;20.29;59.18;100399.94;6157434;23;20022;-76
2023/07/15 00:59:28;;;;;;;5.90;3.00;;;;;;;20.22;59.70;100390.44;6159907;23;20021;-77
2023/07/15 01:01:54;;;;;;;4.18;2.70;;;;;;;20.18;59.86;100392.72;6159671;23;20014;-77
2023/07/15 01:04:21;;;;;;;3.90;3.05;;;;;;;20.14;60.07;100394.25;6133334;23;20032;-77
2023/07/15 01:06:48;;;;;;;6.03;2.90;;;;;;;20.12;59.26;100392.06;6157808;23;20024;-77
2023/07/15 01:09:14;;;;;;;4.63;2.80;;;;;;;20.14;59.41;100394.97;6158190;23;20025;-77
2023/07/15 01:11:41;;;;;;;7.13;3.20;;;;;;;20.14;59.65;100396.97;6158899;23;20018;-76
2023/07/15 01:14:09;;;;;;;3.30;2.80;;;;;;;20.08;60.38;100405.13;6159516;23;20448;-76
2023/07/15 01:16:36;;;;;;;3.10;2.70;;;;;;;20.04;60.44;100401.28;6157924;23;20025;-76
2023/07/15 01:19:03;;;;;;;4.38;3.28;;;;;;;19.99;59.71;100400.13;6158146;23;20014;-76
2023/07/15 01:21:33;;;;;;;8.15;3.05;;;;;;;20.04;59.93;100399.31;6159732;23;20018;-76
2023/07/15 01:24:01;;;;;;;4.88;3.05;;;;;;;20.01;60.28;100396.91;6133539;23;20026;-76
2023/07/15 01:26:27;;;;;;;2.72;2.53;;;;;;;19.96;59.91;100399.19;6158766;23;20519;-75
2023/07/15 01:28:54;;;;;;;3.35;3.13;;;;;;;19.96;60.02;100403.84;6187681;23;20018;-75
2023/07/15 01:31:20;;;;;;;9.00;3.10;;;;;;;19.97;59.41;100403.34;6162643;23;20049;-76
2023/07/15 01:33:47;;;;;;;3.40;2.85;;;;;;;19.95;59.92;100400.44;6162912;23;20028;-76
2023/07/15 01:36:14;;;;;;;3.00;2.80;;;;;;;19.93;60.24;100410.28;6163033;23;20092;-77
2023/07/15 01:38:41;;;;;;;5.57;2.80;;;;;;;19.89;60.06;100402.47;6189414;23;20013;-76
2023/07/15 01:41:08;;;;;;;3.25;2.70;;;;;;;19.85;60.53;100412.09;6188765;23;20022;-76
2023/07/15 01:43:34;;;;;;;4.82;2.88;;;;;;;19.81;59.97;100420.50;6189190;23;20491;-76
2023/07/15 01:46:01;;;;;;;4.13;3.17;;;;;;;19.83;59.75;100418.03;6162435;23;20080;-76
2023/07/15 01:48:28;;;;;;;3.17;2.88;;;;;;;19.83;60.03;100418.03;6189392;23;20025;-76
2023/07/15 01:50:54;;;;;;;2.88;2.60;;;;;;;19.82;60.44;100415.81;6189321;23;20060;-77
2023/07/15 01:53:21;;;;;;;3.17;2.90;;;;;;;19.76;61.62;100415.91;6189258;23;20133;-76
2023/07/15 01:55:47;;;;;;;3.70;2.83;;;;;;;19.71;60.61;100414.00;6161806;23;20332;-77
2023/07/15 01:58:14;;;;;;;4.05;2.75;;;;;;;19.73;59.65;100408.81;6163034;23;20022;-77
2023/07/15 02:00:41;;;;;;;4.05;2.40;;;;;;;19.78;59.43;100413.41;6162294;23;20061;-77
2023/07/15 02:03:08;;;;;;;2.90;2.65;;;;;;;19.75;59.97;100422.53;6162218;23;20028;-77
2023/07/15 02:05:34;;;;;;;3.28;2.50;;;;;;;19.74;59.78;100425.75;6162660;23;20080;-77
2023/07/15 02:08:01;;;;;;;3.45;2.50;;;;;;;19.71;60.15;100422.09;6189321;23;20041;-78
2023/07/15 02:10:30;;;;;;;9.73;2.95;;;;;;;19.75;59.59;100424.50;6188098;23;20014;-78
2023/07/15 02:12:57;;;;;;;6.95;2.60;;;;;;;19.78;59.35;100424.22;6188882;23;20017;-78
2023/07/15 02:15:23;;;;;;;10.00;3.03;;;;;;;19.78;60.21;100423.50;6188926;23;20017;-78
2023/07/15 02:17:50;;;;;;;2.80;2.60;;;;;;;19.73;59.54;100416.91;6162329;23;20041;-78
2023/07/15 02:20:19;;;;;;;7.57;2.70;;;;;;;19.66;60.39;100425.59;6189193;23;20085;-77
2023/07/15 02:22:45;;;;;;;7.75;2.50;;;;;;;19.60;60.61;100427.63;6162926;23;20068;-78
2023/07/15 02:25:12;;;;;;;2.75;2.55;;;;;;;19.55;60.87;100423.78;6188897;23;20014;-77
2023/07/15 02:27:38;;;;;;;3.50;2.75;;;;;;;19.52;60.89;100418.66;6188458;23;20523;-78
2023/07/15 02:30:08;;;;;;;3.25;2.60;;;;;;;19.48;61.59;100432.41;6188813;23;20033;-78
2023/07/15 02:32:39;;;;;;;6.78;3.00;;;;;;;19.45;61.47;100427.31;6162585;23;20014;-78
2023/07/15 02:35:08;;;;;;;5.70;2.53;;;;;;;19.38;61.75;100425.91;6162778;23;20052;-78
2023/07/15 02:37:36;;;;;;;3.65;2.25;;;;;;;19.35;61.72;100437.69;6162984;23;20017;-78
2023/07/15 02:40:04;;;;;;;5.55;2.75;;;;;;;19.30;62.20;100444.63;6161714;23;20451;-78
2023/07/15 02:42:34;;;;;;;6.55;2.58;;;;;;;19.28;62.21;100443.66;6188760;23;20419;-78
2023/07/15 02:45:03;;;;;;;2.83;2.60;;;;;;;19.23;62.50;100442.47;6162005;23;20021;-78
2023/07/15 02:47:33;;;;;;;5.80;2.72;;;;;;;19.17;63.19;100449.94;6188873;23;20463;-77
2023/07/15 02:50:05;;;;;;;5.13;2.73;;;;;;;19.12;63.56;100447.28;6162830;23;20072;-78
2023/07/15 02:52:33;;;;;;;3.05;2.85;;;;;;;19.08;63.82;100450.25;6162454;23;20017;-78
2023/07/15 02:55:00;;;;;;;3.45;3.00;;;;;;;19.03;64.07;100445.63;6188153;23;20470;-76
2023/07/15 02:57:30;;;;;;;3.20;2.53;;;;;;;18.98;63.92;100439.06;6162433;23;20018;-77
2023/07/15 02:59:57;;;;;;;3.90;2.67;;;;;;;18.95;64.29;100437.38;6188612;23;20440;-76
2023/07/15 03:02:24;;;;;;;4.22;2.80;;;;;;;18.89;64.97;100436.69;6188786;23;20060;-77
2023/07/15 03:04:51;;;;;;;3.10;2.78;;;;;;;18.83;65.46;100438.69;6161990;23;20021;-77
2023/07/15 03:07:18;;;;;;;3.15;2.85;;;;;;;18.79;66.06;100443.66;6189230;23;20025;-76
2023/07/15 03:09:44;;;;;;;4.35;2.67;;;;;;;18.76;66.24;100433.16;6188136;23;20098;-76
2023/07/15 03:12:12;;;;;;;2.80;2.60;;;;;;;18.73;67.95;100428.75;6162400;23;20371;-76
2023/07/15 03:14:39;;;;;;;6.25;2.83;;;;;;;18.70;67.15;100433.19;6188702;23;20549;-76
2023/07/15 03:17:05;;;;;;;5.13;3.08;;;;;;;18.67;66.99;100436.16;6188620;23;20014;-76
2023/07/15 03:19:32;;;;;;;3.03;2.75;;;;;;;18.62;67.56;100437.66;6161717;23;20021;-77
2023/07/15 03:21:58;;;;;;;4.97;3.08;;;;;;;18.58;67.92;100435.19;6188118;23;20028;-77
2023/07/15 03:24:26;;;;;;;4.22;2.65;;;;;;;18.57;68.65;100441.81;6189846;23;20014;-77
2023/07/15 03:26:53;;;;;;;4.05;3.08;;;;;;;18.52;67.78;100441.88;6163046;23;20020;-77
2023/07/15 03:29:22;;;;;;;4.63;3.00;;;;;;;18.50;68.33;100447.75;6163714;23;20025;-77
2023/07/15 03:31:49;;;;;;;3.33;3.03;;;;;;;18.48;68.42;100444.81;6163026;23;20028;-77
2023/07/15 03:34:16;;;;;;;4.93;3.20;;;;;;;18.46;69.08;100435.78;6163255;23;20032;-77
2023/07/15 03:36:43;;;;;;;7.93;3.17;;;;;;;18.41;68.90;100436.53;6189178;23;20021;-77
2023/07/15 03:39:10;;;;;;;6.28;2.90;;;;;;;18.36;69.59;100440.03;6163751;23;20021;-77
2023/07/15 03:41:36;;;;;;;6.13;3.55;;;;;;;18.35;70.14;100446.66;6163035;23;20022;-76
2023/07/15 03:44:03;;;;;;;4.85;2.85;;;;;;;18.30;70.51;100435.41;6189276;23;20689;-77
2023/07/15 03:46:30;;;;;;;3.42;3.00;;;;;;;18.29;70.30;100433.22;6189296;23;20435;-77
2023/07/15 03:48:57;;;;;;;3.35;3.15;;;;;;;18.28;71.15;100437.88;6189371;23;20085;-76
2023/07/15 03:51:24;;;;;;;3.35;3.08;;;;;;;18.28;72.20;100432.47;6189088;23;20045;-76
2023/07/15 03:53:50;;;;;;;3.13;2.90;;;;;;;18.25;72.23;100436.16;6189956;23;20037;-78
2023/07/15 03:56:17;;;;;;;4.90;3.40;;;;;;;18.23;71.13;100444.03;6163709;23;20021;-77
2023/07/15 03:58:43;;;;;;;3.50;3.20;;;;;;;18.22;72.15;100437.16;6138606;23;20017;-77
2023/07/15 04:01:10;;;;;;;5.05;3.13;;;;;;;18.22;72.75;100445.25;6190074;23;20025;-77
2023/07/15 04:03:37;;;;;;;3.53;3.22;;;;;;;18.20;72.49;100436.19;6189670;23;20045;-77
2023/07/15 04:06:04;;;;;;;4.80;3.47;;;;;;;18.21;72.24;100434.97;6189156;23;20018;-77
2023/07/15 04:08:30;;;;;;;9.43;3.00;;;;;;;18.21;72.76;100434.97;6138511;23;20021;-77
2023/07/15 04:10:57;;;;;;;4.15;3.38;;;;;;;18.20;73.72;100439.63;6163000;23;20478;-76
2023/07/15 04:13:23;;;;;;;4.75;3.10;;;;;;;18.19;73.32;100443.56;6163077;23;20097;-77
2023/07/15 04:15:50;;;;;;;5.35;3.58;;;;;;;18.20;73.46;100453.09;6162933;23;20018;-77
2023/07/15 04:18:17;;;;;;;7.60;3.50;;;;;;;18.21;72.93;100446.47;6163657;23;20013;-77
2023/07/15 04:20:43;;;;;;;5.90;3.53;;;;;;;18.25;73.10;100446.94;6189015;23;20022;-77
2023/07/15 04:23:10;;;;;;;4.88;3.65;;;;;;;18.31;72.95;100455.00;6189829;23;20018;-77
2023/07/15 04:25:38;;;;;;;3.33;3.00;;;;;;;18.38;73.18;100448.34;6138463;23;20515;-78
2023/07/15 04:28:05;;;;;;;3.67;3.38;;;;;;;18.44;73.01;100446.31;6144200;23;20037;-77
2023/07/15 04:30:31;;;;;;;5.25;3.40;;;;;;;18.50;72.67;100447.03;6133071;23;20486;-77
2023/07/15 04:32:58;;;;;;;4.78;3.17;;;;;;;18.53;72.73;100446.75;6133579;23;20026;-77
2023/07/15 04:35:25;;;;;;;11.75;3.10;;;;;;;18.57;73.92;100449.19;6132220;23;20022;-77
2023/07/15 04:37:51;;;;;;;5.22;3.13;;;;;;;18.60;74.09;100450.91;6159607;23;20103;-76
2023/07/15 04:40:18;;;;;;;4.03;3.60;;;;;;;18.64;73.45;100454.06;6159837;23;20367;-77
2023/07/15 04:42:45;;;;;;;3.22;3.00;;;;;;;18.73;74.10;100455.72;6159770;23;20014;-77
2023/07/15 04:45:12;;;;;;;4.30;3.28;;;;;;;18.80;74.63;100461.28;6133435;23;20050;-77
2023/07/15 04:47:39;;;;;;;3.72;3.38;;;;;;;18.83;73.71;100454.13;6159543;23;20028;-77
2023/07/15 04:50:06;;;;;;;7.30;3.58;;;;;;;18.85;72.49;100459.75;6132383;23;20453;-76
2023/07/15 04:52:32;;;;;;;7.53;3.83;;;;;;;18.83;72.54;100454.13;6133164;23;20025;-76
2023/07/15 04:54:59;;;;;;;4.45;3.25;;;;;;;18.85;73.56;100460.50;6133075;23;20026;-78
2023/07/15 04:57:26;;;;;;;4.00;3.20;;;;;;;18.86;73.71;100456.56;6159620;23;20034;-78
2023/07/15 04:59:52;;;;;;;3.97;3.30;;;;;;;18.88;74.31;100459.50;6159680;23;20026;-78
2023/07/15 05:02:19;;;;;;;6.45;3.30;;;;;;;18.91;74.04;100465.84;6132991;23;20444;-78
2023/07/15 05:04:46;;;;;;;3.85;3.40;;;;;;;18.92;73.80;100462.66;6133362;23;20428;-78
2023/07/15 05:07:12;;;;;;;5.05;3.55;;;;;;;18.93;73.79;100466.81;6159844;23;20444;-76
2023/07/15 05:09:39;;;;;;;7.22;3.22;;;;;;;18.95;74.58;100469.00;6133231;23;20018;-77
2023/07/15 05:12:06;;;;;;;3.40;2.72;;;;;;;18.99;74.99;100466.75;6159548;23;20018;-77
2023/07/15 05:14:34;;;;;;;6.13;4.43;;;;;;;19.04;75.21;100471.38;6159521;23;20030;-77
2023/07/15 05:17:00;;;;;;;5.43;3.55;;;;;;;19.20;74.73;100469.75;6159345;23;20022;-77
2023/07/15 05:19:27;;;;;;;3.83;2.95;;;;;;;19.54;73.84;100476.31;6158839;23;20041;-77
2023/07/15 05:21:53;;;;;;;3.42;3.13;;;;;;;19.90;71.94;100468.03;6159486;23;20014;-76
2023/07/15 05:24:20;;;;;;;7.50;3.25;;;;;;;20.24;72.06;100476.41;6159645;23;20018;-76
2023/07/15 05:26:47;;;;;;;4.30;3.45;;;;;;;21.91;66.30;100475.53;6161747;23;20477;-76
2023/07/15 05:29:13;;;;;;;9.68;3.90;;;;;;;22.93;62.19;100475.47;6189743;23;20022;-76
2023/07/15 05:31:40;;;;;;;3.38;3.10;;;;;;;24.45;56.83;100467.97;6189501;23;20018;-76
2023/07/15 05:34:06;;;;;;;8.25;3.20;;;;;;;25.45;53.31;100472.06;6188861;23;20014;-76
2023/07/15 05:36:34;;;;;;;5.97;3.35;;;;;;;25.27;53.48;100473.94;6189021;23;20018;-77
2023/07/15 05:39:01;;;;;;;3.58;3.28;;;;;;;24.15;55.79;100476.06;6189439;23;20017;-76
2023/07/15 05:41:27;;;;;;;7.05;3.47;;;;;;;24.74;54.67;100478.72;6189229;23;20025;-78
2023/07/15 05:43:54;;;;;;;3.45;2.83;;;;;;;24.73;55.27;100466.38;6189301;23;20426;-77
2023/07/15 05:46:21;;;;;;;12.18;3.40;;;;;;;24.08;56.68;100471.34;6137506;23;20533;-76
2023/07/15 05:48:47;;;;;;;6.07;3.20;;;;;;;24.69;55.46;100472.16;6188589;23;20434;-77
2023/07/15 05:51:15;;;;;;;6.70;3.13;;;;;;;25.55;54.43;100466.78;6189599;23;20097;-77
2023/07/15 05:53:43;;;;;;;4.97;3.22;;;;;;;26.00;52.66;100474.03;6189389;23;20024;-77
2023/07/15 05:56:09;;;;;;;3.75;2.90;;;;;;;26.19;53.17;100484.47;6162532;23;20032;-78
2023/07/15 05:58:36;;;;;;;3.22;2.80;;;;;;;26.22;52.91;100491.53;6189211;23;20024;-77
2023/07/15 06:01:03;;;;;;;2.83;2.63;;;;;;;26.37;53.14;100491.50;6162499;23;20045;-78
2023/07/15 06:03:30;;;;;;;2.78;2.58;;;;;;;26.30;53.81;100496.97;6188582;23;20539;-78
2023/07/15 06:06:01;;;;;;;5.38;2.50;;;;;;;25.54;55.28;100493.31;6162338;23;20013;-77
2023/07/15 06:08:29;;;;;;;5.50;2.95;;;;;;;24.69;57.76;100490.50;6162606;23;20017;-78
2023/07/15 06:10:55;;;;;;;2.67;2.40;;;;;;;24.17;60.20;100498.72;6137986;23;20021;-78
2023/07/15 06:13:22;;;;;;;2.78;2.38;;;;;;;23.83;61.57;100498.25;6162489;23;20101;-77
2023/07/15 06:15:50;;;;;;;2.88;2.67;;;;;;;23.65;62.57;100491.09;6188965;23;20017;-76
2023/07/15 06:18:17;;;;;;;4.25;2.60;;;;;;;23.52;63.13;100494.66;6189489;23;20510;-77
2023/07/15 06:20:47;;;;;;;2.53;2.25;;;;;;;23.77;63.72;100495.69;6162371;23;20432;-76
2023/07/15 06:23:14;;;;;;;3.35;2.00;;;;;;;23.83;63.09;100495.56;6164064;23;20041;-80
2023/07/15 06:25:40;;;;;;;2.42;2.20;;;;;;;23.66;63.59;100500.72;6163509;23;20033;-77
2023/07/15 06:28:07;;;;;;;2.22;2.03;;;;;;;23.56;64.13;100495.06;6189692;23;20056;-77
2023/07/15 06:30:34;;;;;;;2.55;1.98;;;;;;;23.30;65.14;100485.09;6188933;23;20321;-76
2023/07/15 06:33:00;;;;;;;5.78;1.85;;;;;;;23.38;65.57;100488.59;6189097;23;20073;-76
2023/07/15 06:35:27;;;;;;;5.60;1.92;;;;;;;23.50;65.32;100491.75;6188349;23;20571;-75
2023/07/15 06:37:54;;;;;;;1.90;1.80;;;;;;;23.61;64.96;100484.03;6162627;23;20021;-75
2023/07/15 06:40:20;;;;;;;2.10;1.85;;;;;;;23.69;63.98;100488.78;6188736;23;20024;-76
2023/07/15 06:42:48;;;;;;;3.58;1.73;;;;;;;23.72;64.86;100482.28;6190007;23;20025;-75
2023/07/15 06:45:20;;;;;;;3.60;1.83;;;;;;;23.90;64.22;100494.84;6189450;23;20089;-75
2023/07/15 06:47:47;;;;;;;1.80;1.70;;;;;;;24.03;64.01;100500.13;6189989;23;20026;-74
2023/07/15 06:50:15;;;;;;;2.25;1.73;;;;;;;24.20;63.45;100491.50;6138843;23;20028;-75
2023/07/15 06:52:42;;;;;;;1.70;1.60;;;;;;;24.16;62.87;100491.84;6189717;23;20018;-76
2023/07/15 06:55:08;;;;;;;1.40;1.30;;;;;;;24.12;62.12;100488.75;6189722;23;20478;-77
2023/07/15 06:57:35;;;;;;;1.45;1.35;;;;;;;24.12;63.14;100483.31;6189526;23;20017;-75
2023/07/15 07:00:04;;;;;;;1.73;1.38;;;;;;;24.22;63.01;100480.81;6163055;23;20026;-75
2023/07/15 07:02:30;;;;;;;2.05;1.50;;;;;;;24.38;62.74;100492.47;6189441;23;20448;-76
2023/07/15 07:04:57;;;;;;;6.18;1.40;;;;;;;24.38;62.94;100489.75;6163495;23;20018;-74
2023/07/15 07:07:24;;;;;;;1.58;1.45;;;;;;;24.58;63.78;100497.00;6189684;23;20021;-73
2023/07/15 07:09:51;;;;;;;1.80;1.70;;;;;;;24.53;62.31;100500.63;6189796;23;20360;-74
2023/07/15 07:12:18;;;;;;;1.67;1.58;;;;;;;24.47;62.73;100505.53;6189836;23;20443;-73
2023/07/15 07:14:44;;;;;;;2.33;1.58;;;;;;;24.49;63.68;100501.00;6188774;23;20045;-74
2023/07/15 07:17:11;;;;;;;1.60;1.52;;;;;;;24.46;63.32;100502.06;6189521;23;20021;-74
2023/07/15 07:19:38;;;;;;;2.85;1.70;;;;;;;24.47;63.73;100497.34;6189346;23;20018;-73
2023/07/15 07:22:04;;;;;;;4.82;1.50;;;;;;;24.63;63.01;100495.38;6189591;23;20339;-74
2023/07/15 07:24:31;;;;;;;2.25;1.60;;;;;;;24.93;63.07;100492.66;6162398;23;20124;-75
2023/07/15 07:26:58;;;;;;;1.15;1.15;;;;;;;25.09;61.18;100491.41;6189263;23;20080;-74
2023/07/15 07:29:24;;;;;;;3.50;1.30;;;;;;;25.05;62.11;100496.50;6188717;23;20014;-74
2023/07/15 07:31:52;;;;;;;5.20;1.40;;;;;;;25.21;61.91;100497.19;6189503;23;20018;-74
2023/07/15 07:34:19;;;;;;;1.20;1.20;;;;;;;25.35;62.01;100500.44;6189249;23;20065;-76
2023/07/15 07:36:45;;;;;;;1.58;1.48;;;;;;;25.48;60.02;100495.50;6163037;23;20026;-74
2023/07/15 07:39:13;;;;;;;1.50;1.40;;;;;;;25.39;59.74;100509.69;6189471;23;20020;-74
2023/07/15 07:41:40;;;;;;;2.50;1.38;;;;;;;25.50;59.81;100498.41;6189184;23;20042;-74
2023/07/15 07:44:08;;;;;;;2.20;1.48;;;;;;;25.65;59.50;100505.09;6188862;23;20146;-75
2023/07/15 07:46:35;;;;;;;3.70;1.42;;;;;;;25.83;58.81;100512.84;6161976;23;20022;-73
2023/07/15 07:49:02;;;;;;;2.92;1.63;;;;;;;25.94;58.57;100519.88;6163213;23;20423;-73
2023/07/15 07:51:29;;;;;;;1.50;1.40;;;;;;;25.59;59.99;100527.09;6189067;23;20728;-74
2023/07/15 07:53:56;;;;;;;3.67;1.60;;;;;;;25.26;60.96;100537.13;6189282;23;20045;-74
2023/07/15 07:56:23;;;;;;;1.88;1.63;;;;;;;25.23;61.82;100533.50;6188666;23;20053;-74
2023/07/15 07:58:58;;;;;;;1.30;1.27;;;;;;;25.35;61.31;100530.41;6188673;23;20443;-75
2023/07/15 08:01:25;;;;;;;3.38;1.67;;;;;;;25.26;60.31;100528.94;6188944;23;20014;-74
2023/07/15 08:03:54;;;;;;;1.60;1.48;;;;;;;25.30;60.61;100528.59;6189099;23;20021;-76
2023/07/15 08:06:21;;;;;;;1.30;1.30;;;;;;;25.60;60.35;100526.50;6188471;23;20022;-77
2023/07/15 08:08:48;;;;;;;2.03;1.80;;;;;;;25.46;60.69;100532.75;6162750;23;20088;-76
2023/07/15 08:11:15;;;;;;;4.43;1.83;;;;;;;25.22;61.15;100520.41;6190601;23;20041;-75
2023/07/15 08:13:42;;;;;;;2.33;2.10;;;;;;;24.87;61.50;100530.22;6189528;23;20028;-75
2023/07/15 08:16:34;;;;;;;1.83;1.73;;;;;;;25.05;61.49;100531.16;6190460;23;20029;-76
2023/07/15 08:19:02;;;;;;;3.08;1.95;;;;;;;25.17;61.62;100526.81;6190427;23;20479;-76
2023/07/15 08:21:29;;;;;;;2.20;2.00;;;;;;;25.27;60.94;100527.69;6190131;23;20020;-76
2023/07/15 08:23:56;;;;;;;2.00;1.90;;;;;;;25.59;61.04;100519.59;6190524;23;20020;-76
2023/07/15 08:26:23;;;;;;;3.90;2.20;;;;;;;26.07;59.58;100516.91;6189259;23;20018;-76
2023/07/15 08:28:50;;;;;;;1.90;1.80;;;;;;;26.57;57.57;100522.44;6158282;23;20081;-77
2023/07/15 08:31:17;;;;;;;2.00;1.90;;;;;;;26.66;57.57;100527.31;6158922;23;20014;-75
2023/07/15 08:33:44;;;;;;;2.95;1.90;;;;;;;26.76;57.41;100522.69;6158660;23;20029;-76
2023/07/15 08:36:11;;;;;;;3.08;2.20;;;;;;;26.72;56.70;100533.25;6160334;23;20029;-76
2023/07/15 08:38:37;;;;;;;2.33;1.83;;;;;;;27.01;56.92;100528.13;6160272;23;20104;-76
2023/07/15 08:41:04;;;;;;;2.95;2.22;;;;;;;27.14;56.65;100527.13;6159944;23;20504;-76
2023/07/15 08:43:31;;;;;;;2.20;2.10;;;;;;;27.13;55.27;100529.13;6158661;23;20429;-76
2023/07/15 08:46:06;;;;;;;2.10;1.92;;;;;;;26.85;55.91;100532.97;6158595;23;20101;-76
2023/07/15 08:48:34;;;;;;;2.20;2.00;;;;;;;26.54;56.57;100529.03;6159683;23;20042;-76
2023/07/15 08:51:00;;;;;;;2.00;1.90;;;;;;;26.43;56.94;100524.72;6158351;23;20452;-76
2023/07/15 08:53:28;;;;;;;2.47;2.00;;;;;;;26.30;57.77;100519.50;6159643;23;20018;-76
2023/07/15 08:55:56;;;;;;;2.15;2.00;;;;;;;25.96;58.98;100530.25;6159419;23;20070;-76
2023/07/15 08:58:25;;;;;;;2.10;2.00;;;;;;;25.85;59.52;100536.81;6159707;23;20452;-76
2023/07/15 09:00:52;;;;;;;2.25;2.10;;;;;;;25.89;58.88;100545.34;6159908;23;20018;-76
2023/07/15 09:03:19;;;;;;;2.35;1.98;;;;;;;26.49;58.22;100538.88;6157931;23;20506;-75
2023/07/15 09:05:48;;;;;;;2.10;1.90;;;;;;;26.65;57.29;100541.50;6158444;23;20046;-76
2023/07/15 09:08:15;;;;;;;3.38;2.00;;;;;;;26.54;58.01;100554.31;6160492;23;20494;-76
2023/07/15 09:10:56;;;;;;;2.05;1.95;;;;;;;26.59;58.41;100566.28;6159297;23;20054;-77
2023/07/15 09:13:25;;;;;;;2.85;2.50;;;;;;;26.40;57.27;100568.75;6160506;23;20029;-78
2023/07/15 09:15:52;;;;;;;3.40;2.20;;;;;;;26.47;58.05;100560.53;6160253;23;20022;-79
2023/07/15 09:18:19;;;;;;;2.13;1.98;;;;;;;26.76;57.44;100566.38;6157822;23;20477;-79
2023/07/15 09:20:46;;;;;;;2.08;1.98;;;;;;;26.72;56.77;100560.56;6159345;23;20093;-78
2023/07/15 09:23:14;;;;;;;3.03;2.45;;;;;;;26.64;56.25;100567.34;6160164;23;20416;-76
2023/07/15 09:26:00;;;;;;;3.03;2.40;;;;;;;26.88;56.74;100559.16;6158971;23;20081;-76
2023/07/15 09:28:26;;;;;;;2.63;2.42;;;;;;;27.24;55.43;100557.97;6182337;23;20021;-75
2023/07/15 09:30:53;;;;;;;2.70;2.50;;;;;;;27.34;55.96;100553.31;6189984;23;20041;-77
2023/07/15 09:33:46;;;;;;;2.67;2.30;;;;;;;27.59;55.16;100558.03;6189076;23;20466;-77
2023/07/15 09:36:14;;;;;;;2.30;2.20;;;;;;;27.64;54.23;100559.78;6159086;23;20084;-81
2023/07/15 09:38:41;;;;;;;2.75;2.33;;;;;;;27.46;54.72;100561.78;6189697;23;20133;-79
2023/07/15 09:41:09;;;;;;;4.95;2.60;;;;;;;27.41;56.01;100563.44;6186943;23;20009;-78
2023/07/15 09:43:42;;;;;;;2.28;2.17;;;;;;;27.64;54.76;100563.22;6188677;23;20017;-80
2023/07/15 09:46:08;;;;;;;2.70;2.50;;;;;;;27.39;53.99;100557.81;6189533;23;20514;-80
2023/07/15 09:48:35;;;;;;;2.67;2.47;;;;;;;27.21;54.38;100553.63;6189149;23;20018;-78
2023/07/15 09:51:02;;;;;;;2.10;2.00;;;;;;;27.12;56.23;100551.53;6163512;23;20024;-80
2023/07/15 09:53:30;;;;;;;2.75;2.30;;;;;;;27.00;55.84;100540.34;6162210;23;20021;-82
2023/07/15 09:55:59;;;;;;;2.60;2.40;;;;;;;26.66;55.81;100553.88;6189479;23;20025;-80
2023/07/15 09:58:27;;;;;;;2.63;2.50;;;;;;;26.45;57.23;100565.81;6163233;23;20014;-80
2023/07/15 10:01:03;;;;;;;2.70;2.50;;;;;;;26.42;55.36;100563.47;6163577;23;20355;-81
2023/07/15 10:03:35;;;;;;;2.53;2.10;;;;;;;26.39;56.07;100572.78;6189588;23;20048;-79
2023/07/15 10:06:03;;;;;;;2.22;2.13;;;;;;;26.41;56.95;100572.94;6189808;23;20021;-80
2023/07/15 10:08:30;;;;;;;9.18;2.55;;;;;;;26.39;56.68;100575.53;6161570;23;20025;-79
2023/07/15 10:10:57;;;;;;;4.70;2.97;;;;;;;26.30;57.01;100581.53;6188723;23;20021;-78
2023/07/15 10:13:24;;;;;;;3.00;2.63;;;;;;;26.16;57.42;100587.22;6162175;23;20450;-79
2023/07/15 10:15:52;;;;;;;4.15;2.80;;;;;;;26.06;56.96;100585.63;6162482;23;20029;-78
2023/07/15 10:18:19;;;;;;;2.60;2.33;;;;;;;25.91;58.93;100576.25;6189264;23;20048;-78
2023/07/15 10:20:55;;;;;;;2.50;2.40;;;;;;;26.13;56.53;100577.44;6163161;23;20040;-77
2023/07/15 10:23:26;;;;;;;2.65;2.05;;;;;;;26.08;56.86;100575.63;6188647;23;20479;-79
2023/07/15 10:26:06;;;;;;;2.05;1.95;;;;;;;26.14;57.35;100576.16;6189628;23;20024;-77
2023/07/15 10:28:35;;;;;;;2.67;1.85;;;;;;;26.05;58.93;100581.47;6189127;23;20017;-78
2023/07/15 10:31:11;;;;;;;2.78;2.42;;;;;;;26.17;58.84;100583.22;6162541;23;20013;-78
2023/07/15 10:33:59;;;;;;;2.25;2.15;;;;;;;26.16;56.85;100570.13;6189037;23;20489;-77
2023/07/15 10:36:47;;;;;;;2.47;2.28;;;;;;;26.13;57.75;100565.78;6188977;23;20032;-77
2023/07/15 10:39:18;;;;;;;2.50;2.30;;;;;;;26.00;57.11;100561.28;6189195;23;20024;-76
2023/07/15 10:41:47;;;;;;;2.10;2.00;;;;;;;26.28;57.39;100556.81;6163323;23;20077;-76
2023/07/15 10:44:15;;;;;;;5.55;2.20;;;;;;;26.42;57.29;100552.56;6189295;23;20073;-77
2023/07/15 10:47:01;;;;;;;2.03;1.80;;;;;;;26.55;56.49;100533.19;6189308;23;20053;-77
2023/07/15 10:49:30;;;;;;;2.72;2.00;;;;;;;26.42;55.78;100531.44;6189113;23;20013;-76
2023/07/15 10:51:57;;;;;;;2.47;2.10;;;;;;;26.54;56.04;100531.75;6188718;23;20013;-75
2023/07/15 10:54:25;;;;;;;2.10;2.00;;;;;;;26.48;56.41;100533.97;6189250;23;20024;-75
2023/07/15 10:56:53;;;;;;;2.80;1.83;;;;;;;26.47;55.63;100527.78;6162379;23;20026;-74
2023/07/15 10:59:35;;;;;;;2.30;1.92;;;;;;;26.30;56.16;100530.44;6162307;23;20060;-75
2023/07/15 11:02:02;;;;;;;2.67;1.73;;;;;;;26.20;56.15;100524.13;6189469;23;20017;-75
2023/07/15 11:04:29;;;;;;;2.00;1.90;;;;;;;26.15;56.47;100527.78;6188878;23;20084;-75
2023/07/15 11:07:04;;;;;;;3.05;2.13;;;;;;;26.09;56.78;100530.72;6188723;23;20093;-75
2023/07/15 11:09:31;;;;;;;2.75;2.28;;;;;;;26.05;56.42;100521.47;6189258;23;20052;-75
2023/07/15 11:11:58;;;;;;;2.30;1.80;;;;;;;26.22;55.46;100522.28;6189060;23;20471;-75
2023/07/15 11:14:26;;;;;;;9.50;2.20;;;;;;;26.11;55.69;100522.69;6188998;23;20014;-75
2023/07/15 11:16:58;;;;;;;4.20;2.00;;;;;;;26.14;55.17;100520.88;6189274;23;20132;-75
2023/07/15 11:19:27;;;;;;;2.50;2.10;;;;;;;26.00;56.17;100517.66;6189033;23;20018;-75
2023/07/15 11:21:58;;;;;;;5.80;1.95;;;;;;;25.96;55.92;100533.69;6188739;23;20013;-75
2023/07/15 11:24:27;;;;;;;2.17;1.98;;;;;;;26.04;57.38;100530.91;6188854;23;20502;-75
2023/07/15 11:26:54;;;;;;;2.92;2.08;;;;;;;26.30;55.82;100511.31;6188504;23;20444;-74
2023/07/15 11:29:24;;;;;;;2.33;1.98;;;;;;;26.61;55.36;100520.06;6162415;23;20013;-75